createdAt,value
2022-12-18T00:02:00.722Z,74.97
2022-12-18T00:05:02.730Z,74.90
2022-12-18T00:08:04.926Z,75.40
2022-12-18T00:11:14.532Z,69.85
2022-12-18T00:14:16.431Z,74.05
2022-12-18T00:17:18.234Z,72.82
2022-12-18T00:20:26.391Z,78.63
2022-12-18T00:23:29.666Z,70.57
2022-12-18T00:26:33.704Z,69.35
2022-12-18T00:29:35.627Z,77.22
2022-12-18T00:32:38.052Z,78.80
2022-12-18T00:35:39.767Z,77.03
2022-12-18T00:38:42.450Z,76.65
2022-12-18T00:42:02.733Z,72.20
2022-12-18T00:45:10.677Z,79.63
2022-12-18T00:48:14.531Z,82.10
2022-12-18T00:51:16.234Z,73.80
2022-12-18T00:54:18.516Z,83.70
2022-12-18T00:57:20.584Z,91.03
2022-12-18T01:00:23.203Z,86.00
2022-12-18T01:03:25.013Z,89.78
2022-12-18T01:06:26.973Z,79.95
2022-12-18T01:09:28.802Z,75.72
2022-12-18T01:12:30.658Z,83.40
2022-12-18T01:15:32.478Z,82.93
2022-12-18T01:18:34.424Z,80.32
2022-12-18T01:21:36.830Z,80.07
2022-12-18T01:24:38.586Z,84.90
2022-12-18T01:27:40.506Z,78.97
2022-12-18T01:30:42.418Z,78.10
2022-12-18T01:33:44.920Z,70.32
2022-12-18T01:36:46.629Z,72.18
2022-12-18T01:39:48.534Z,72.30
2022-12-18T01:42:54.150Z,70.78
2022-12-18T01:45:56.217Z,71.40
2022-12-18T01:49:01.109Z,73.90
2022-12-18T01:52:02.842Z,76.10
2022-12-18T01:55:07.047Z,72.35
2022-12-18T01:58:08.804Z,73.60
2022-12-18T02:01:11.102Z,75.93
2022-12-18T02:04:24.503Z,77.55
2022-12-18T02:07:51.077Z,67.43
2022-12-18T02:10:58.323Z,73.43
2022-12-18T02:14:19.334Z,72.15
2022-12-18T02:17:37.863Z,75.75
2022-12-18T02:20:59.894Z,67.72
2022-12-18T02:24:10.815Z,60.38
2022-12-18T02:27:13.666Z,60.05
2022-12-18T02:30:16.505Z,63.08
2022-12-18T02:33:21.859Z,61.45
2022-12-18T02:36:25.226Z,65.22
2022-12-18T02:39:30.352Z,59.67
2022-12-18T02:42:33.060Z,57.25
2022-12-18T02:45:34.872Z,61.63
2022-12-18T02:48:36.935Z,61.20
2022-12-18T02:51:53.554Z,59.00
2022-12-18T02:55:19.459Z,59.80
2022-12-18T02:58:39.501Z,54.72
2022-12-18T03:01:59.397Z,51.28
2022-12-18T03:05:22.056Z,57.42
2022-12-18T03:08:28.799Z,51.87
2022-12-18T03:11:53.431Z,48.03
2022-12-18T03:15:15.953Z,48.00
2022-12-18T03:18:31.325Z,46.20
2022-12-18T03:21:47.262Z,48.30
2022-12-18T03:24:49.971Z,43.10
2022-12-18T03:27:58.685Z,43.85
2022-12-18T03:31:02.828Z,42.25
2022-12-18T03:34:10.643Z,40.72
2022-12-18T03:37:12.423Z,45.70
2022-12-18T03:40:14.194Z,45.33
2022-12-18T03:43:39.349Z,40.05
2022-12-18T03:47:16.697Z,41.40
2022-12-18T03:50:25.245Z,46.17
2022-12-18T03:53:37.100Z,47.83
2022-12-18T03:56:48.052Z,45.17
2022-12-18T03:59:55.410Z,46.45
2022-12-18T04:03:00.297Z,41.88
2022-12-18T04:06:03.121Z,45.45
2022-12-18T04:12:07.654Z,46.23
2022-12-18T04:15:11.106Z,42.33
2022-12-18T04:18:13.071Z,39.95
2022-12-18T04:21:14.879Z,39.75
2022-12-18T04:24:16.610Z,39.63
2022-12-18T04:27:18.481Z,40.42
2022-12-18T04:30:20.311Z,39.80
2022-12-18T04:33:22.140Z,38.75
2022-12-18T04:36:23.949Z,34.63
2022-12-18T04:39:25.757Z,37.65
2022-12-18T04:42:28.279Z,37.03
2022-12-18T04:45:31.873Z,37.30
2022-12-18T04:48:33.862Z,37.28
2022-12-18T04:51:35.837Z,32.75
2022-12-18T04:54:37.822Z,33.70
2022-12-18T04:57:39.566Z,36.30
2022-12-18T05:00:41.307Z,32.47
2022-12-18T05:03:44.328Z,32.05
2022-12-18T05:06:46.425Z,27.60
2022-12-18T05:09:48.178Z,39.05
2022-12-18T05:12:59.067Z,33.78
2022-12-18T05:16:03.877Z,33.92
2022-12-18T05:19:05.807Z,30.52
2022-12-18T05:22:07.583Z,33.55
2022-12-18T05:25:09.767Z,32.55
2022-12-18T05:28:11.705Z,31.27
2022-12-18T05:31:13.957Z,31.92
2022-12-18T05:34:15.837Z,35.25
2022-12-18T05:37:17.972Z,29.02
2022-12-18T05:40:19.970Z,29.45
2022-12-18T05:43:22.851Z,24.83
2022-12-18T05:49:27.732Z,29.37
2022-12-18T05:52:29.546Z,31.08
2022-12-18T05:55:37.817Z,28.45
2022-12-18T05:58:39.640Z,25.48
2022-12-18T06:01:41.829Z,27.90
2022-12-18T06:04:43.779Z,32.03
2022-12-18T06:07:45.726Z,26.10
2022-12-18T06:10:52.413Z,21.83
2022-12-18T06:13:58.556Z,27.70
2022-12-18T06:17:00.625Z,31.08
2022-12-18T06:20:03.241Z,29.85
2022-12-18T06:23:05.052Z,28.13
2022-12-18T06:26:10.175Z,26.63
2022-12-18T06:29:12.010Z,27.65
2022-12-18T06:32:13.729Z,33.55
2022-12-18T06:35:15.493Z,28.10
2022-12-18T06:38:17.405Z,30.25
2022-12-18T06:41:21.729Z,28.52
2022-12-18T06:44:23.555Z,27.35
2022-12-18T06:47:25.463Z,24.75
2022-12-18T06:50:27.337Z,28.13
2022-12-18T06:53:29.625Z,33.03
2022-12-18T06:56:32.071Z,30.33
2022-12-18T06:59:33.976Z,28.35
2022-12-18T07:02:35.870Z,20.38
2022-12-18T07:05:41.994Z,19.33
2022-12-18T07:08:44.642Z,25.50
2022-12-18T07:11:46.374Z,29.00
2022-12-18T07:14:48.105Z,23.02
2022-12-18T07:17:49.982Z,25.77
2022-12-18T07:20:51.730Z,23.38
2022-12-18T07:23:53.794Z,27.25
2022-12-18T07:26:55.611Z,25.67
2022-12-18T07:29:57.376Z,25.38
2022-12-18T07:32:59.078Z,20.48
2022-12-18T07:36:01.919Z,21.98
2022-12-18T07:39:03.951Z,24.98
2022-12-18T07:42:24.644Z,25.90
2022-12-18T07:45:27.039Z,25.88
2022-12-18T07:48:29.766Z,22.10
2022-12-18T07:51:31.588Z,27.63
2022-12-18T07:54:33.562Z,22.17
2022-12-18T07:57:50.125Z,17.25
2022-12-18T08:00:53.389Z,25.42
2022-12-18T08:03:55.434Z,22.83
2022-12-18T08:06:57.642Z,24.47
2022-12-18T08:09:59.880Z,24.33
2022-12-18T08:13:05.124Z,18.17
2022-12-18T08:16:08.566Z,26.20
2022-12-18T08:19:10.384Z,23.63
2022-12-18T08:22:12.503Z,25.42
2022-12-18T08:25:14.450Z,26.93
2022-12-18T08:28:17.223Z,22.70
2022-12-18T08:31:20.125Z,25.60
2022-12-18T08:34:22.978Z,20.90
2022-12-18T08:37:24.912Z,16.67
2022-12-18T08:40:27.060Z,25.15
2022-12-18T08:43:47.952Z,25.40
2022-12-18T08:46:49.991Z,23.48
2022-12-18T08:49:51.843Z,24.20
2022-12-18T08:52:53.560Z,22.90
2022-12-18T08:55:57.183Z,29.10
2022-12-18T08:58:59.013Z,24.30
2022-12-18T09:02:00.945Z,22.55
2022-12-18T09:05:02.997Z,19.20
2022-12-18T09:08:04.977Z,21.98
2022-12-18T09:11:13.782Z,22.30
2022-12-18T09:14:15.725Z,23.70
2022-12-18T09:17:17.650Z,19.30
2022-12-18T09:20:20.004Z,22.83
2022-12-18T09:23:22.444Z,21.83
2022-12-18T09:26:25.905Z,20.75
2022-12-18T09:29:28.094Z,22.63
2022-12-18T09:32:29.977Z,21.03
2022-12-18T09:35:31.715Z,19.67
2022-12-18T09:38:33.893Z,22.95
2022-12-18T09:41:51.856Z,20.43
2022-12-18T09:44:55.549Z,18.70
2022-12-18T09:47:58.606Z,21.27
2022-12-18T09:54:11.531Z,23.85
2022-12-18T09:57:24.091Z,20.33
2022-12-18T10:00:26.829Z,30.80
2022-12-18T10:03:28.705Z,23.00
2022-12-18T10:06:40.559Z,24.15
2022-12-18T10:10:02.077Z,22.63
2022-12-18T10:13:27.471Z,21.55
2022-12-18T10:16:44.303Z,30.20
2022-12-18T10:20:14.328Z,24.08
2022-12-18T10:23:27.318Z,23.02
2022-12-18T10:26:29.039Z,24.55
2022-12-18T10:29:30.907Z,27.25
2022-12-18T10:32:32.667Z,23.08
2022-12-18T10:35:36.070Z,24.17
2022-12-18T10:38:38.488Z,24.10
2022-12-18T10:41:40.541Z,22.38
2022-12-18T10:44:42.519Z,23.95
2022-12-18T10:47:53.514Z,20.65
2022-12-18T10:51:13.046Z,22.02
2022-12-18T10:54:23.408Z,18.80
2022-12-18T10:57:37.939Z,19.90
2022-12-18T11:00:40.066Z,25.13
2022-12-18T11:03:47.342Z,22.13
2022-12-18T11:07:09.057Z,23.92
2022-12-18T11:10:18.498Z,26.23
2022-12-18T11:13:23.645Z,22.80
2022-12-18T11:16:25.937Z,24.75
2022-12-18T11:19:33.594Z,24.73
2022-12-18T11:22:37.390Z,21.55
2022-12-18T11:25:39.549Z,23.35
2022-12-18T11:28:53.751Z,23.80
2022-12-18T11:32:15.480Z,24.30
2022-12-18T11:35:43.799Z,25.30
2022-12-18T11:38:48.124Z,27.00
2022-12-18T11:42:28.881Z,26.25
2022-12-18T11:45:35.974Z,22.73
2022-12-18T11:49:07.592Z,24.77
2022-12-18T11:52:19.125Z,23.60
2022-12-18T11:55:26.618Z,26.95
2022-12-18T11:58:48.263Z,25.02
2022-12-18T12:02:10.603Z,23.45
2022-12-18T12:05:33.925Z,22.50
2022-12-18T12:08:55.082Z,25.55
2022-12-18T12:12:23.765Z,21.55
2022-12-18T12:15:59.984Z,24.60
2022-12-18T12:19:23.173Z,22.55
2022-12-18T12:22:44.799Z,22.88
2022-12-18T12:25:56.702Z,25.50
2022-12-18T12:29:23.028Z,25.55
2022-12-18T12:33:00.203Z,25.02
2022-12-18T12:36:17.053Z,26.98
2022-12-18T12:39:27.860Z,32.60
2022-12-18T12:43:00.846Z,28.65
2022-12-18T12:46:12.752Z,19.85
2022-12-18T12:49:18.806Z,27.27
2022-12-18T12:52:40.885Z,27.17
2022-12-18T12:55:44.182Z,29.88
2022-12-18T12:58:46.000Z,27.08
2022-12-18T13:02:24.097Z,28.65
2022-12-18T13:05:31.485Z,29.13
2022-12-18T13:08:54.753Z,30.33
2022-12-18T13:15:41.428Z,28.98
2022-12-18T13:18:53.966Z,30.42
2022-12-18T13:21:57.368Z,30.73
2022-12-18T13:24:59.395Z,30.08
2022-12-18T13:28:13.602Z,29.33
2022-12-18T13:31:35.702Z,28.60
2022-12-18T13:34:38.285Z,30.30
2022-12-18T13:37:45.170Z,37.95
2022-12-18T13:40:49.935Z,32.13
2022-12-18T13:43:54.373Z,31.20
2022-12-18T13:46:56.591Z,32.47
2022-12-18T13:49:58.703Z,31.13
2022-12-18T13:53:00.944Z,20.97
2022-12-18T13:56:04.620Z,28.57
2022-12-18T13:59:15.933Z,30.85
2022-12-18T14:02:23.691Z,30.88
2022-12-18T14:05:27.004Z,33.13
2022-12-18T14:08:35.641Z,33.58
2022-12-18T14:11:38.712Z,34.38
2022-12-18T14:14:48.630Z,31.98
2022-12-18T14:18:01.973Z,31.10
2022-12-18T14:21:05.418Z,31.52
2022-12-18T14:24:09.892Z,29.27
2022-12-18T14:27:29.909Z,33.25
2022-12-18T14:30:42.788Z,32.05
2022-12-18T14:33:44.622Z,33.55
2022-12-18T14:36:57.106Z,40.13
2022-12-18T14:40:11.032Z,34.23
2022-12-18T14:43:13.921Z,41.17
2022-12-18T14:46:38.119Z,39.05
2022-12-18T14:49:46.373Z,48.13
2022-12-18T14:52:48.303Z,52.78
2022-12-18T14:55:50.505Z,49.05
2022-12-18T14:58:56.731Z,43.17
2022-12-18T15:02:01.648Z,48.90
2022-12-18T15:05:20.462Z,44.35
2022-12-18T15:08:37.411Z,38.50
2022-12-18T15:11:42.216Z,35.40
2022-12-18T15:14:44.129Z,32.38
2022-12-18T15:17:46.112Z,30.63
2022-12-18T15:21:00.056Z,33.45
2022-12-18T15:24:02.031Z,30.05
2022-12-18T15:27:04.011Z,27.40
2022-12-18T15:30:11.382Z,24.13
2022-12-18T15:33:30.898Z,26.23
2022-12-18T15:36:32.716Z,22.20
2022-12-18T15:39:36.751Z,21.60
2022-12-18T15:42:57.349Z,21.92
2022-12-18T15:45:59.239Z,20.85
2022-12-18T15:49:03.048Z,21.23
2022-12-18T15:52:05.822Z,25.75
2022-12-18T15:55:38.623Z,25.17
2022-12-18T15:58:41.609Z,20.00
2022-12-18T16:01:46.399Z,23.98
2022-12-18T16:04:48.274Z,25.10
2022-12-18T16:07:50.148Z,23.42
2022-12-18T16:10:52.477Z,25.23
2022-12-18T16:13:54.446Z,21.80
2022-12-18T16:16:59.522Z,26.50
2022-12-18T16:20:01.384Z,24.10
2022-12-18T16:23:03.152Z,24.90
2022-12-18T16:26:05.736Z,22.20
2022-12-18T16:29:07.561Z,22.80
2022-12-18T16:32:15.010Z,20.35
2022-12-18T16:35:17.760Z,21.95
2022-12-18T16:38:19.532Z,22.58
2022-12-18T16:41:33.621Z,24.48
2022-12-18T16:44:36.026Z,22.77
2022-12-18T16:47:38.033Z,21.77
2022-12-18T16:50:39.998Z,22.08
2022-12-18T16:53:42.417Z,24.25
2022-12-18T16:56:45.465Z,22.15
2022-12-18T16:59:47.834Z,20.70
2022-12-18T17:05:53.364Z,23.75
2022-12-18T17:09:01.031Z,21.13
2022-12-18T17:12:04.567Z,20.23
2022-12-18T17:15:07.324Z,23.55
2022-12-18T17:18:09.257Z,21.88
2022-12-18T17:21:12.227Z,23.83
2022-12-18T17:24:14.144Z,24.13
2022-12-18T17:27:16.171Z,24.42
2022-12-18T17:30:17.898Z,22.33
2022-12-18T17:33:19.825Z,22.90
2022-12-18T17:36:22.851Z,24.42
2022-12-18T17:39:24.763Z,25.05
2022-12-18T17:42:26.576Z,23.42
2022-12-18T17:45:28.313Z,24.48
2022-12-18T17:48:30.712Z,20.83
2022-12-18T17:51:32.802Z,21.30
2022-12-18T17:54:35.469Z,22.98
2022-12-18T17:57:37.293Z,22.48
2022-12-18T18:00:39.503Z,20.58
2022-12-18T18:03:42.093Z,20.25
2022-12-18T18:09:46.893Z,24.08
2022-12-18T18:13:07.481Z,24.27
2022-12-18T18:16:10.962Z,22.15
2022-12-18T18:19:15.690Z,21.88
2022-12-18T18:22:18.705Z,23.35
2022-12-18T18:28:23.609Z,22.57
2022-12-18T18:31:26.085Z,22.80
2022-12-18T18:34:30.953Z,24.67
2022-12-18T18:37:32.696Z,26.05
2022-12-18T18:40:34.514Z,22.92
2022-12-18T18:43:36.970Z,26.63
2022-12-18T18:46:38.940Z,22.50
2022-12-18T18:49:40.811Z,22.95
2022-12-18T18:52:42.640Z,27.95
2022-12-18T18:55:51.751Z,24.35
2022-12-18T18:59:05.903Z,24.77
2022-12-18T19:02:12.463Z,22.13
2022-12-18T19:05:14.906Z,25.20
2022-12-18T19:08:19.235Z,25.20
2022-12-18T19:11:44.425Z,21.83
2022-12-18T19:14:46.274Z,25.17
2022-12-18T19:17:48.061Z,26.33
2022-12-18T19:21:05.046Z,25.80
2022-12-18T19:24:07.458Z,26.25
2022-12-18T19:27:11.075Z,25.40
2022-12-18T19:30:13.018Z,30.67
2022-12-18T19:33:34.348Z,28.40
2022-12-18T19:36:39.399Z,33.45
2022-12-18T19:39:41.212Z,25.73
2022-12-18T19:42:42.976Z,26.33
2022-12-18T19:45:44.842Z,28.55
2022-12-18T19:48:47.462Z,27.23
2022-12-18T19:51:50.402Z,27.88
2022-12-18T19:54:52.863Z,32.17
2022-12-18T19:57:54.585Z,27.60
2022-12-18T20:00:56.453Z,29.80
2022-12-18T20:04:00.328Z,32.60
2022-12-18T20:07:02.927Z,27.75
2022-12-18T20:10:09.262Z,31.25
2022-12-18T20:13:11.447Z,27.70
2022-12-18T20:16:13.271Z,31.13
2022-12-18T20:19:15.247Z,31.20
2022-12-18T20:22:18.064Z,27.98
2022-12-18T20:25:40.172Z,28.98
2022-12-18T20:28:46.334Z,37.08
2022-12-18T20:31:48.607Z,30.85
2022-12-18T20:34:50.432Z,30.27
2022-12-18T20:37:52.537Z,32.20
2022-12-18T20:40:55.554Z,32.70
2022-12-18T20:43:57.389Z,33.47
2022-12-18T20:47:07.474Z,33.35
2022-12-18T20:50:10.927Z,36.13
2022-12-18T20:53:12.743Z,37.00
2022-12-18T20:56:21.743Z,31.10
2022-12-18T20:59:25.561Z,33.25
2022-12-18T21:02:27.719Z,37.28
2022-12-18T21:05:29.648Z,33.42
2022-12-18T21:08:31.910Z,34.03
2022-12-18T21:11:52.530Z,34.03
2022-12-18T21:14:54.806Z,35.88
2022-12-18T21:17:56.547Z,41.35
2022-12-18T21:20:58.959Z,39.45
2022-12-18T21:24:00.975Z,39.28
2022-12-18T21:27:05.623Z,36.53
2022-12-18T21:30:11.064Z,36.05
2022-12-18T21:33:12.822Z,33.83
2022-12-18T21:36:14.559Z,37.30
2022-12-18T21:39:17.017Z,31.77
2022-12-18T21:42:38.034Z,35.90
2022-12-18T21:45:39.853Z,37.80
2022-12-18T21:48:43.369Z,35.15
2022-12-18T21:51:45.653Z,36.90
2022-12-18T21:54:47.385Z,33.95
2022-12-18T21:57:50.222Z,33.60
2022-12-18T22:00:52.221Z,37.30
2022-12-18T22:03:54.013Z,34.90
2022-12-18T22:06:56.414Z,36.22
2022-12-18T22:10:02.821Z,36.40
2022-12-18T22:13:06.585Z,32.38
2022-12-18T22:16:08.759Z,33.72
2022-12-18T22:19:11.595Z,35.00
2022-12-18T22:22:13.776Z,31.25
2022-12-18T22:25:15.620Z,35.03
2022-12-18T22:28:36.020Z,35.03
2022-12-18T22:31:38.571Z,33.72
2022-12-18T22:34:40.480Z,35.10
2022-12-18T22:37:42.269Z,34.35
2022-12-18T22:40:44.235Z,34.28
2022-12-18T22:43:46.251Z,34.17
2022-12-18T22:47:05.542Z,38.33
2022-12-18T22:50:11.657Z,33.05
2022-12-18T22:53:13.729Z,33.28
2022-12-18T22:56:21.179Z,33.92
2022-12-18T22:59:24.057Z,32.40
2022-12-18T23:02:26.055Z,37.30
2022-12-18T23:05:31.627Z,37.15
2022-12-18T23:08:37.186Z,36.45
2022-12-18T23:11:38.979Z,34.67
2022-12-18T23:14:40.726Z,36.40
2022-12-18T23:17:42.592Z,33.20
2022-12-18T23:20:44.365Z,34.42
2022-12-18T23:23:46.479Z,29.77
2022-12-18T23:26:48.504Z,34.17
2022-12-18T23:29:50.229Z,35.40
2022-12-18T23:32:53.838Z,32.47
2022-12-18T23:36:00.123Z,33.10
2022-12-18T23:39:02.138Z,31.67
2022-12-18T23:42:04.153Z,30.55
2022-12-18T23:45:17.608Z,31.25
2022-12-18T23:48:20.871Z,34.22
2022-12-18T23:51:25.605Z,31.05
2022-12-18T23:54:33.029Z,31.27
2022-12-18T23:57:35.686Z,34.13
